Time,TemperatureF,DewpointF,PressureIn,WindDirection,WindDirectionDegrees,WindSpeedMPH,WindSpeedGustMPH,Humidity,HourlyPrecipIn,Conditions,Clouds,dailyrainin,SolarRadiationWatts/m^2,SoftwareType,DateUTC
2014-02-06 00:01:00,-5.0,-12.0,-100.00,West,260,2.0,8.0,70,0.00,,,0.00,0.000000,,2014-02-06 06:01:00,
2014-02-06 00:42:00,-5.0,-12.0,-100.00,West,260,2.0,8.0,70,0.00,,,0.00,0.000000,,2014-02-06 06:42:00,
2014-02-06 00:52:00,-5.0,-12.0,-100.00,West,260,2.0,8.0,70,0.00,,,0.00,0.000000,,2014-02-06 06:52:00,
2014-02-06 01:01:00,-5.0,-12.0,-100.00,West,267,3.0,6.0,72,0.00,,,0.00,0.000000,,2014-02-06 07:01:00,
2014-02-06 01:42:00,-5.0,-12.0,-100.00,West,267,3.0,6.0,72,0.00,,,0.00,0.000000,,2014-02-06 07:42:00,
2014-02-06 01:52:00,-5.0,-12.0,-100.00,West,267,3.0,6.0,72,0.00,,,0.00,0.000000,,2014-02-06 07:52:00,
2014-02-06 02:01:00,-5.0,-12.0,-100.00,West,265,4.0,7.0,71,0.00,,,0.00,0.000000,,2014-02-06 08:01:00,
2014-02-06 02:42:00,-5.0,-12.0,-100.00,West,265,4.0,7.0,71,0.00,,,0.00,0.000000,,2014-02-06 08:42:00,
2014-02-06 02:52:00,-5.0,-12.0,-100.00,West,265,4.0,7.0,71,0.00,,,0.00,0.000000,,2014-02-06 08:52:00,
2014-02-06 03:01:00,-7.0,-13.0,-100.00,WSW,252,3.0,7.0,73,0.00,,,0.00,0.000000,,2014-02-06 09:01:00,
2014-02-06 03:43:00,-7.0,-13.0,-100.00,WSW,252,3.0,7.0,73,0.00,,,0.00,0.000000,,2014-02-06 09:43:00,
2014-02-06 03:53:00,-7.0,-13.0,-100.00,WSW,252,3.0,7.0,73,0.00,,,0.00,0.000000,,2014-02-06 09:53:00,
2014-02-06 04:01:00,-9.0,-15.0,-100.00,WSW,253,3.0,5.0,73,0.00,,,0.00,0.000000,,2014-02-06 10:01:00,
2014-02-06 04:42:00,-9.0,-15.0,-100.00,WSW,253,3.0,5.0,73,0.00,,,0.00,0.000000,,2014-02-06 10:42:00,
2014-02-06 04:53:00,-9.0,-15.0,-100.00,WSW,253,3.0,5.0,73,0.00,,,0.00,0.000000,,2014-02-06 10:53:00,
2014-02-06 05:01:00,-10.0,-17.0,-100.00,WSW,250,4.0,5.0,72,0.00,,,0.00,0.000000,,2014-02-06 11:01:00,
2014-02-06 05:42:00,-10.0,-17.0,-100.00,WSW,250,4.0,5.0,72,0.00,,,0.00,0.000000,,2014-02-06 11:42:00,
2014-02-06 05:53:00,-10.0,-17.0,-100.00,WSW,250,4.0,5.0,72,0.00,,,0.00,0.000000,,2014-02-06 11:53:00,
2014-02-06 06:01:00,-10.0,-17.0,-100.00,West,267,4.0,7.0,72,0.00,,,0.00,0.000000,,2014-02-06 12:01:00,
2014-02-06 06:42:00,-10.0,-17.0,-100.00,West,267,4.0,7.0,72,0.00,,,0.00,0.000000,,2014-02-06 12:42:00,
2014-02-06 06:53:00,-10.0,-17.0,-100.00,West,267,4.0,7.0,72,0.00,,,0.00,0.000000,,2014-02-06 12:53:00,
2014-02-06 08:01:00,-9.0,-16.0,-100.00,West,264,4.0,9.0,70,-99.99,,,0.00,25.000000,,2014-02-06 14:01:00,
2014-02-06 08:42:00,-9.0,-16.0,-100.00,West,264,4.0,9.0,70,-99.99,,,0.00,25.000000,,2014-02-06 14:42:00,
2014-02-06 08:53:00,-9.0,-16.0,-100.00,West,264,4.0,9.0,70,-99.99,,,0.00,25.000000,,2014-02-06 14:53:00,
2014-02-06 09:01:00,-5.0,-14.0,-100.00,West,279,7.0,11.0,64,0.00,,,0.00,166.000000,,2014-02-06 15:01:00,
2014-02-06 09:44:00,-5.0,-14.0,-100.00,West,279,7.0,11.0,64,0.00,,,0.00,166.000000,,2014-02-06 15:44:00,
2014-02-06 09:54:00,-5.0,-14.0,-100.00,West,279,7.0,11.0,64,0.00,,,0.00,166.000000,,2014-02-06 15:54:00,
2014-02-06 10:01:00,0.0,-12.0,-100.00,WNW,282,7.0,13.0,56,0.00,,,0.00,349.000000,,2014-02-06 16:01:00,
2014-02-06 10:43:00,0.0,-12.0,-100.00,WNW,282,7.0,13.0,56,0.00,,,0.00,349.000000,,2014-02-06 16:43:00,
2014-02-06 10:53:00,0.0,-12.0,-100.00,WNW,282,7.0,13.0,56,0.00,,,0.00,349.000000,,2014-02-06 16:53:00,
2014-02-06 11:01:00,4.0,-13.0,-100.00,WNW,292,8.0,14.0,45,0.00,,,0.00,483.000000,,2014-02-06 17:01:00,
2014-02-06 11:22:00,4.0,-13.0,-100.00,WNW,292,8.0,14.0,45,0.00,,,0.00,483.000000,,2014-02-06 17:22:00,
2014-02-06 11:33:00,4.0,-13.0,-100.00,WNW,292,8.0,14.0,45,0.00,,,0.00,483.000000,,2014-02-06 17:33:00,
2014-02-06 11:43:00,4.0,-13.0,-100.00,WNW,292,8.0,14.0,45,0.00,,,0.00,483.000000,,2014-02-06 17:43:00,
2014-02-06 11:52:00,4.0,-13.0,-100.00,WNW,292,8.0,14.0,45,0.00,,,0.00,483.000000,,2014-02-06 17:52:00,
2014-02-06 12:01:00,7.0,-12.0,-100.00,WNW,295,10.0,19.0,40,0.00,,,0.00,566.000000,,2014-02-06 18:01:00,
2014-02-06 12:22:00,7.0,-12.0,-100.00,WNW,295,10.0,19.0,40,0.00,,,0.00,566.000000,,2014-02-06 18:22:00,
2014-02-06 12:33:00,7.0,-12.0,-100.00,WNW,295,10.0,19.0,40,0.00,,,0.00,566.000000,,2014-02-06 18:33:00,
2014-02-06 12:42:00,7.0,-12.0,-100.00,WNW,295,10.0,19.0,40,0.00,,,0.00,566.000000,,2014-02-06 18:42:00,
2014-02-06 12:52:00,7.0,-12.0,-100.00,WNW,295,10.0,19.0,40,0.00,,,0.00,566.000000,,2014-02-06 18:52:00,
2014-02-06 13:01:00,9.0,-12.0,-100.00,West,271,10.0,20.0,37,0.00,,,0.00,560.000000,,2014-02-06 19:01:00,
2014-02-06 13:42:00,9.0,-12.0,-100.00,West,271,10.0,20.0,37,0.00,,,0.00,560.000000,,2014-02-06 19:42:00,
2014-02-06 13:52:00,9.0,-12.0,-100.00,West,271,10.0,20.0,37,0.00,,,0.00,560.000000,,2014-02-06 19:52:00,
2014-02-06 14:01:00,10.0,-11.0,-100.00,WSW,248,11.0,21.0,37,0.00,,,0.00,536.000000,,2014-02-06 20:01:00,
2014-02-06 14:22:00,10.0,-11.0,-100.00,WSW,248,11.0,21.0,37,0.00,,,0.00,536.000000,,2014-02-06 20:22:00,
2014-02-06 14:32:00,10.0,-11.0,-100.00,WSW,248,11.0,21.0,37,0.00,,,0.00,536.000000,,2014-02-06 20:32:00,
2014-02-06 14:42:00,10.0,-11.0,-100.00,WSW,248,11.0,21.0,37,0.00,,,0.00,536.000000,,2014-02-06 20:42:00,
2014-02-06 14:53:00,10.0,-11.0,-100.00,WSW,248,11.0,21.0,37,0.00,,,0.00,536.000000,,2014-02-06 20:53:00,
2014-02-06 15:01:00,11.0,-10.0,-100.00,WSW,253,9.0,18.0,37,0.00,,,0.00,436.000000,,2014-02-06 21:01:00,
2014-02-06 15:22:00,11.0,-10.0,-100.00,WSW,253,9.0,18.0,37,0.00,,,0.00,436.000000,,2014-02-06 21:22:00,
2014-02-06 15:33:00,11.0,-10.0,-100.00,WSW,253,9.0,18.0,37,0.00,,,0.00,436.000000,,2014-02-06 21:33:00,
2014-02-06 15:43:00,11.0,-10.0,-100.00,WSW,253,9.0,18.0,37,0.00,,,0.00,436.000000,,2014-02-06 21:43:00,
2014-02-06 15:53:00,11.0,-10.0,-100.00,WSW,253,9.0,18.0,37,0.00,,,0.00,436.000000,,2014-02-06 21:53:00,
2014-02-06 16:01:00,9.0,-11.0,-100.00,WSW,239,10.0,18.0,39,0.00,,,0.00,288.000000,,2014-02-06 22:01:00,
2014-02-06 16:42:00,9.0,-11.0,-100.00,WSW,239,10.0,18.0,39,0.00,,,0.00,288.000000,,2014-02-06 22:42:00,
2014-02-06 16:53:00,9.0,-11.0,-100.00,WSW,239,10.0,18.0,39,0.00,,,0.00,288.000000,,2014-02-06 22:53:00,
2014-02-06 17:01:00,4.0,-12.0,-100.00,West,265,8.0,16.0,47,0.00,,,0.00,95.000000,,2014-02-06 23:01:00,
2014-02-06 17:43:00,4.0,-12.0,-100.00,West,265,8.0,16.0,47,0.00,,,0.00,95.000000,,2014-02-06 23:43:00,
2014-02-06 17:53:00,4.0,-12.0,-100.00,West,265,8.0,16.0,47,0.00,,,0.00,95.000000,,2014-02-06 23:53:00,
2014-02-06 18:01:00,1.0,-12.0,-100.00,West,268,6.0,12.0,52,0.00,,,0.00,3.000000,,2014-02-07 00:01:00,
2014-02-06 18:22:00,1.0,-12.0,-100.00,West,268,6.0,12.0,52,0.00,,,0.00,3.000000,,2014-02-07 00:22:00,
2014-02-06 18:32:00,1.0,-12.0,-100.00,West,268,6.0,12.0,52,0.00,,,0.00,3.000000,,2014-02-07 00:32:00,
2014-02-06 18:42:00,1.0,-12.0,-100.00,West,268,6.0,12.0,52,0.00,,,0.00,3.000000,,2014-02-07 00:42:00,
2014-02-06 18:52:00,1.0,-12.0,-100.00,West,268,6.0,12.0,52,0.00,,,0.00,3.000000,,2014-02-07 00:52:00,
2014-02-06 19:01:00,-1.0,-13.0,-100.00,WSW,253,8.0,21.0,55,0.00,,,0.00,0.000000,,2014-02-07 01:01:00,
2014-02-06 19:42:00,-1.0,-13.0,-100.00,WSW,253,8.0,21.0,55,0.00,,,0.00,0.000000,,2014-02-07 01:42:00,
2014-02-06 19:52:00,-1.0,-13.0,-100.00,WSW,253,8.0,21.0,55,0.00,,,0.00,0.000000,,2014-02-07 01:52:00,
2014-02-06 20:01:00,-3.0,-14.0,-100.00,WSW,247,8.0,15.0,59,0.00,,,0.00,0.000000,,2014-02-07 02:01:00,
2014-02-06 20:22:00,-3.0,-14.0,-100.00,WSW,247,8.0,15.0,59,0.00,,,0.00,0.000000,,2014-02-07 02:22:00,
2014-02-06 20:32:00,-3.0,-14.0,-100.00,WSW,247,8.0,15.0,59,0.00,,,0.00,0.000000,,2014-02-07 02:32:00,
2014-02-06 20:42:00,-3.0,-14.0,-100.00,WSW,247,8.0,15.0,59,0.00,,,0.00,0.000000,,2014-02-07 02:42:00,
2014-02-06 20:52:00,-3.0,-14.0,-100.00,WSW,247,8.0,15.0,59,0.00,,,0.00,0.000000,,2014-02-07 02:52:00,
2014-02-06 21:01:00,-4.0,-14.0,-100.00,WSW,253,7.0,14.0,62,0.00,,,0.00,0.000000,,2014-02-07 03:01:00,
2014-02-06 21:43:00,-4.0,-14.0,-100.00,WSW,253,7.0,14.0,62,0.00,,,0.00,0.000000,,2014-02-07 03:43:00,
2014-02-06 21:54:00,-4.0,-14.0,-100.00,WSW,253,7.0,14.0,62,0.00,,,0.00,0.000000,,2014-02-07 03:54:00,
2014-02-06 22:01:00,-5.0,-14.0,-100.00,WSW,248,8.0,13.0,65,0.00,,,0.00,0.000000,,2014-02-07 04:01:00,
2014-02-06 22:23:00,-5.0,-14.0,-100.00,WSW,248,8.0,13.0,65,0.00,,,0.00,0.000000,,2014-02-07 04:23:00,
2014-02-06 22:33:00,-5.0,-14.0,-100.00,WSW,248,8.0,13.0,65,0.00,,,0.00,0.000000,,2014-02-07 04:33:00,
2014-02-06 22:43:00,-5.0,-14.0,-100.00,WSW,248,8.0,13.0,65,0.00,,,0.00,0.000000,,2014-02-07 04:43:00,
2014-02-06 22:52:00,-5.0,-14.0,-100.00,WSW,248,8.0,13.0,65,0.00,,,0.00,0.000000,,2014-02-07 04:52:00,
2014-02-06 23:01:00,-6.0,-14.0,-100.00,WSW,255,8.0,16.0,67,0.00,,,0.00,0.000000,,2014-02-07 05:01:00,
2014-02-06 23:23:00,-6.0,-14.0,-100.00,WSW,255,8.0,16.0,67,0.00,,,0.00,0.000000,,2014-02-07 05:23:00,
2014-02-06 23:33:00,-6.0,-14.0,-100.00,WSW,255,8.0,16.0,67,0.00,,,0.00,0.000000,,2014-02-07 05:33:00,
2014-02-06 23:43:00,-6.0,-14.0,-100.00,WSW,255,8.0,16.0,67,0.00,,,0.00,0.000000,,2014-02-07 05:43:00,
2014-02-06 23:52:00,-6.0,-14.0,-100.00,WSW,255,8.0,16.0,67,0.00,,,0.00,0.000000,,2014-02-07 05:52:00,